Pagrindinis puslapis
METAR-TAF:

METAR-TAF

Oro uostai :

Jask, Iranas

platuma: 26-38N, ilguma: 057-46E, Aukštis: 3 m

Dabartinis oras

Ataskaita buvo paskelbta 33 minutes, ne 17:00 UTC
Vėjas 4 kt iš Vakarų/Šiaurės Vakarų
Temperatūra 30°C
Drėgmė 70%
Slėgis 1012 hPa
Matomumas: 8000 m

METAR: OIZJ 171700Z 30004KT 8000 NSC 30/24 Q1012

Laikas: 21:03 (17:33 UTC)


TAF: trūkstamas

Orai ataskaitas ir orų prognozės (METAR, TAF).

turimą stotys yra geltonos ir raudonos taškus žemėlapyje.

Perkelti pele per norėdami pamatyti stoties vardą.

Tada spustelėkite, norėdami matyti oro stebėjimo ir prognozės.

Norėdami pakeisti žemėlapį: spustelėkite ant žalios mygtukų su juodo kryžiaus žemyn,; žalią mygtuką su brūkšneliu, jei norite nutolinti; arba žalių rodyklių gretimoms žemėlapius.


METAR-TAF: